Stations météo

Publicité
Apt, France (7657): Température de l'air & dewpoint: 15.10.2019 04:00:00 - 21.10.2019 04:00:00 (CEST)Apt, France (7657): Vitesse du vent & gusts: 15.10.2019 04:00:00 - 21.10.2019 04:00:00 (CEST)Apt, France (7657): Direction du vent: 15.10.2019 04:00:00 - 21.10.2019 04:00:00 (CEST)Apt, France (7657): Quantités de précipitations: 15.10.2019 04:00:00 - 21.10.2019 04:00:00 (CEST)
Date & Time tt [°C] td [°C] ff [km/h] ff [knt] fx [km/h] fx [knt] dd rr [mm]
21.10.2019 04:00:00 - - - - - - - -
21.10.2019 03:00:00 12,5 10,9 11 6 44 24 S 0,4
21.10.2019 02:00:00 13,4 11,8 16 9 41 22 SSE -
21.10.2019 01:00:00 14,0 13,4 18 10 48 26 SSE 1,0
21.10.2019 00:00:00 13,5 12,6 22 12 67 36 SSW 20,0
20.10.2019 23:00:00 14,1 13,8 22 12 48 26 SE 3,0
20.10.2019 22:00:00 14,1 13,8 24 13 44 24 SE 1,0
20.10.2019 21:00:00 14,1 13,6 24 13 44 24 ESE 2,0
20.10.2019 20:00:00 14,5 13,5 18 10 67 36 SE -
20.10.2019 19:00:00 14,8 13,5 26 14 52 28 SE 0,2
20.10.2019 18:00:00 16,0 12,4 22 12 55 30 SSE 0,0
20.10.2019 17:00:00 16,7 12,6 29 16 63 34 SE 0,0
20.10.2019 16:00:00 16,8 12,5 35 19 76 41 SE 0,0
20.10.2019 15:00:00 16,8 12,3 39 21 76 41 SE 0,0
20.10.2019 14:00:00 17,0 12,1 42 23 96 52 SE -
20.10.2019 13:00:00 16,6 11,9 34 18 63 34 SSE 0,0
20.10.2019 12:00:00 16,2 11,6 26 14 61 33 SE 0,0
20.10.2019 11:00:00 15,5 11,3 24 13 50 27 SE 0,0
20.10.2019 10:00:00 15,2 11,6 26 14 52 28 SE 0,0
20.10.2019 09:00:00 14,7 11,7 21 11 50 27 SE 0,0
20.10.2019 08:00:00 14,6 11,9 22 12 46 25 ESE -
20.10.2019 07:00:00 14,4 12,1 24 13 44 24 SE 0,0
20.10.2019 06:00:00 14,3 12,3 24 13 42 23 ESE 0,0
20.10.2019 05:00:00 13,7 12,3 18 10 44 24 SE 0,0
20.10.2019 04:00:00 13,7 11,9 21 11 46 25 SSE 0,0
20.10.2019 03:00:00 13,8 12,0 26 14 63 34 SE 0,0
20.10.2019 02:00:00 14,2 12,4 34 18 63 34 SE -
20.10.2019 01:00:00 14,4 12,9 29 16 61 33 SE 0,0
20.10.2019 00:00:00 14,5 13,5 28 15 48 26 SE 0,0
19.10.2019 23:00:00 14,6 13,5 24 13 48 26 SE 0,0
19.10.2019 22:00:00 14,7 13,6 24 13 52 28 SE 0,0
19.10.2019 21:00:00 14,9 13,8 24 13 65 35 SE 0,0
19.10.2019 20:00:00 15,0 14,0 22 12 48 26 SE -
19.10.2019 19:00:00 15,0 14,0 21 11 37 20 SE 0,0
19.10.2019 18:00:00 15,4 13,9 18 10 44 24 SE 0,0
19.10.2019 17:00:00 15,7 13,5 21 11 46 25 SE 0,0
19.10.2019 16:00:00 15,9 13,4 22 12 46 25 SSE 0,0
19.10.2019 15:00:00 16,0 13,5 22 12 44 24 SE 0,0
19.10.2019 14:00:00 16,4 14,1 18 10 41 22 SSE -
19.10.2019 13:00:00 16,1 14,3 21 11 37 20 SE 0,0
19.10.2019 12:00:00 15,0 14,0 21 11 44 24 SE 0,0
19.10.2019 11:00:00 14,3 14,3 18 10 35 19 SE 0,0
19.10.2019 10:00:00 14,0 14,0 16 9 31 17 SE 0,2
19.10.2019 09:00:00 13,8 13,8 13 7 28 15 SE 0,0
19.10.2019 08:00:00 13,6 13,6 8 4 31 17 SSE -
19.10.2019 07:00:00 13,6 13,6 13 7 31 17 SE 0,2
19.10.2019 06:00:00 13,6 13,6 11 6 29 16 SSE 1,0
19.10.2019 05:00:00 13,4 13,4 15 8 37 20 SE 1,0
19.10.2019 04:00:00 13,3 13,0 16 9 39 21 SE 2,0
19.10.2019 03:00:00 13,3 13,1 16 9 35 19 SE 1,0
19.10.2019 02:00:00 13,4 12,6 22 12 44 24 SE -
19.10.2019 01:00:00 12,9 12,7 22 12 41 22 SE 0,6
19.10.2019 00:00:00 12,8 12,8 15 8 26 14 ESE 0,2
18.10.2019 23:00:00 12,8 12,3 9 5 24 13 SE 0,2
18.10.2019 22:00:00 12,9 12,1 13 7 28 15 SE 0,0
18.10.2019 21:00:00 13,2 12,3 16 9 28 15 SE 0,0
18.10.2019 20:00:00 13,4 12,3 15 8 26 14 ESE -
18.10.2019 19:00:00 13,8 12,4 11 6 24 13 SE 0,0
18.10.2019 18:00:00 14,4 12,4 11 6 26 14 ESE 0,0
18.10.2019 17:00:00 15,1 12,4 15 8 26 14 SE 0,0
18.10.2019 16:00:00 15,0 12,5 16 9 26 14 SE 0,0
18.10.2019 15:00:00 14,3 12,0 11 6 26 14 SE 0,0
18.10.2019 14:00:00 13,9 12,1 15 8 28 15 SE -
18.10.2019 13:00:00 13,7 11,7 13 7 29 16 ESE 0,0
18.10.2019 12:00:00 13,1 11,0 13 7 28 15 SE 0,0
18.10.2019 11:00:00 12,8 11,5 16 9 28 15 ESE 0,0
18.10.2019 10:00:00 12,4 11,5 13 7 26 14 SE 0,0
18.10.2019 09:00:00 11,9 11,3 13 7 28 15 ESE 0,0
18.10.2019 08:00:00 11,8 11,2 13 7 29 16 ESE -
18.10.2019 07:00:00 11,8 11,3 8 4 18 10 SSE 0,0
18.10.2019 06:00:00 11,7 10,9 8 4 15 8 SE 0,0
18.10.2019 05:00:00 11,8 11,0 9 5 18 10 SE 0,0
18.10.2019 04:00:00 11,9 11,1 8 4 18 10 SE 0,0
18.10.2019 03:00:00 12,0 11,2 5 3 21 11 SSE 0,0
18.10.2019 02:00:00 12,1 11,5 9 5 18 10 SE -
18.10.2019 01:00:00 12,1 11,5 9 5 21 11 ESE 0,0
18.10.2019 00:00:00 12,1 11,5 9 5 21 11 SE 0,0
17.10.2019 23:00:00 12,2 11,6 11 6 24 13 SE 0,0
17.10.2019 22:00:00 12,2 11,6 13 7 24 13 ESE 0,0
17.10.2019 21:00:00 12,4 11,5 13 7 24 13 ESE 0,0
17.10.2019 20:00:00 12,6 11,5 11 6 21 11 SE -
17.10.2019 19:00:00 13,1 11,5 9 5 22 12 SE 0,0
17.10.2019 18:00:00 13,5 11,7 13 7 29 16 SE 0,0
17.10.2019 17:00:00 14,3 11,6 15 8 31 17 SE 0,0
17.10.2019 16:00:00 14,5 11,5 13 7 26 14 SE 0,0
17.10.2019 15:00:00 13,9 11,4 16 9 28 15 ESE 0,0
17.10.2019 14:00:00 13,3 11,7 13 7 28 15 ESE -
17.10.2019 13:00:00 12,1 11,5 9 5 22 12 SSE 0,4
17.10.2019 12:00:00 12,3 11,2 15 8 28 15 ESE 0,0
17.10.2019 11:00:00 11,4 10,8 8 4 21 11 S 0,0
17.10.2019 10:00:00 11,0 10,7 11 6 21 11 SE 0,0
17.10.2019 09:00:00 10,7 10,4 9 5 24 13 SSE 0,4
17.10.2019 08:00:00 10,5 9,9 8 4 18 10 SSE -
17.10.2019 07:00:00 10,8 9,7 8 4 18 10 SSE 0,0
17.10.2019 06:00:00 10,7 9,5 8 4 15 8 SE 0,0
17.10.2019 05:00:00 10,2 9,0 8 4 16 9 S 0,0
17.10.2019 04:00:00 7,8 7,0 4 2 15 8 S 0,0
17.10.2019 03:00:00 8,8 7,4 8 4 11 6 SSE 0,0
17.10.2019 02:00:00 7,4 6,2 4 2 16 9 SSW -
17.10.2019 01:00:00 8,1 7,5 8 4 11 6 SSE 0,0
17.10.2019 00:00:00 5,7 5,3 4 2 9 5 SSW 0,0
16.10.2019 23:00:00 5,4 5,1 5 3 9 5 WSW 0,0
16.10.2019 22:00:00 5,7 5,1 4 2 9 5 SW 0,0
16.10.2019 21:00:00 6,8 5,4 0 0 5 3 N 0,0
16.10.2019 20:00:00 8,4 6,2 0 0 8 4 N -
16.10.2019 19:00:00 10,9 6,4 5 3 16 9 SE 0,0
16.10.2019 18:00:00 13,7 6,5 11 6 18 10 SE 0,0
16.10.2019 17:00:00 15,0 5,5 8 4 22 12 SSW 0,0
16.10.2019 16:00:00 15,3 5,2 13 7 26 14 SW 0,0
16.10.2019 15:00:00 15,5 5,1 15 8 26 14 SW 0,0
16.10.2019 14:00:00 16,3 3,7 11 6 21 11 W -
16.10.2019 13:00:00 15,9 4,0 11 6 18 10 W 0,0
16.10.2019 12:00:00 14,7 4,1 8 4 18 10 N 0,0
16.10.2019 11:00:00 12,9 4,1 9 5 18 10 N 0,0
16.10.2019 10:00:00 10,7 3,7 11 6 18 10 NNW 0,0
16.10.2019 09:00:00 6,9 4,2 8 4 16 9 W 0,0
16.10.2019 08:00:00 4,6 2,6 13 7 18 10 W -
16.10.2019 07:00:00 3,8 2,2 8 4 15 8 W 0,0
16.10.2019 06:00:00 4,8 2,2 9 5 22 12 NNW 0,0
16.10.2019 05:00:00 5,0 2,5 15 8 22 12 WNW 0,0
16.10.2019 04:00:00 6,4 2,3 9 5 28 15 NNW 0,0
16.10.2019 03:00:00 7,7 2,6 18 10 24 13 NW 0,0
16.10.2019 02:00:00 6,9 3,1 13 7 26 14 WNW -
16.10.2019 01:00:00 6,8 3,2 13 7 24 13 WNW 0,0
16.10.2019 00:00:00 7,7 3,4 11 6 31 17 NW 0,0
15.10.2019 23:00:00 8,3 3,7 9 5 28 15 WNW 0,0
15.10.2019 22:00:00 8,9 5,1 11 6 29 16 NW 0,0
15.10.2019 21:00:00 9,9 5,3 15 8 35 19 NW 0,0
15.10.2019 20:00:00 10,1 5,9 16 9 31 17 WNW -
15.10.2019 19:00:00 10,7 6,3 13 7 29 16 WNW 0,0
15.10.2019 18:00:00 11,3 7,2 13 7 34 18 NW 0,0
15.10.2019 17:00:00 13,3 7,3 16 9 37 20 WNW 0,0
15.10.2019 16:00:00 12,5 8,8 15 8 39 21 W 0,0
15.10.2019 15:00:00 12,5 8,8 18 10 35 19 W 0,0
15.10.2019 14:00:00 13,4 9,6 21 11 37 20 W -
15.10.2019 13:00:00 12,3 10,7 15 8 - - W 0,0
15.10.2019 12:00:00 13,1 12,0 8 4 16 9 SSW 0,0
15.10.2019 11:00:00 12,5 12,2 4 2 16 9 SSE 0,2
15.10.2019 10:00:00 12,0 11,4 5 3 35 19 SE 2,0
15.10.2019 09:00:00 12,0 11,2 11 6 24 13 SW 2,0
15.10.2019 08:00:00 12,1 11,3 9 5 55 30 W -
15.10.2019 07:00:00 12,9 11,5 22 12 59 32 SSE 5,0
15.10.2019 06:00:00 13,5 12,9 24 13 44 24 SE 0,8
15.10.2019 05:00:00 13,4 12,8 15 8 41 22 SE 1,0
15.10.2019 04:00:00 13,6 12,7 22 12 44 24 SE 2,0

tt = Température de l'air
td = dewpoint
ff = Vitesse du vent
fx = gusts
dd = Direction du vent
rr = Quantités de précipitations

stations d'obs. à proximité